Terminal Aerodrome Forecast
Issued by NWS Northern Indiana

Home | Current Version | Previous Version | Graphics & Text | Print | Product List | Glossary On
Versions: 1 2 3 4 5 6 7 8 9 10 11 12 13 14 15 16 17 18 19
720
FTUS43 KIWX 262335
TAFFWA
TAF
KFWA 262335Z 2700/2724 04014KT P6SM SCT020 BKN250
     FM270200 05014KT P6SM OVC015
     FM270500 06012KT P6SM OVC008
     FM271000 07015KT P6SM BKN015
     FM271600 08012KT P6SM BKN040=

USA.gov is the U.S. government's official web portal to all federal, state and local government web resources and services.